KLM745 EHAM-RCSS
Flight info
| Callsign | KLM745 |
|---|---|
| Flight time | N/A |
| Altitude | 31000 |
| Route | ARNEM L620 OMELO DCT ODNEM DCT ERGOM/N0488F330 DCT TEGRI DCT BULEN L744 UDROS UM859 KARDE UN644 ROLIN N644 LAGAS M747 BODKA P130 DOGAM/N0488F350 P130 MAMED B449 DOLOS B475 DAVET P173 TAPIS L509 SULOM M890 LKN Q18 PPT A201 BOGEP/N0496F370 A201 LSO A599 LINSO/K0917S1130 A599 GULOT W146 XSJ W148 LXI A599 GYA B330 POU/N0493F370 DCT CH DCT KILOG M750 EXTRA/N0515F310 M750 ANLOT W4 HLG HLG1H |
| Aircraft | B77W/H-SDE1E2E3FGHIJ2J3J4J5M1RWXY/LB1D1 |
Departure
| Time | 2026-05-07 12:08 |
|---|---|
| Airport | Amsterdam Airport Schiphol (EHAM) |
Arrival
| Time | N/A |
|---|---|
| Airport | Taipei Songshan International Airport (RCSS) |
| Time | Latitude | Longitude | Altitude | Speed | Heading |
|---|---|---|---|---|---|
| 2026-05-07 11:48 | 52.31264 | 4.76611 | 4 ft | 0 kts | 123° |
| 2026-05-07 11:53 | 52.31273 | 4.76587 | 4 ft | 4 kts | 120° |
| 2026-05-07 11:53 | 52.31287 | 4.76549 | 6 ft | 4 kts | 124° |
| 2026-05-07 11:53 | 52.31302 | 4.76520 | 7 ft | 2 kts | 140° |
| 2026-05-07 11:54 | 52.31312 | 4.76505 | 6 ft | 4 kts | 180° |
| 2026-05-07 11:54 | 52.31327 | 4.76515 | 8 ft | 3 kts | 214° |
| 2026-05-07 11:54 | 52.31348 | 4.76537 | 6 ft | 4 kts | 214° |
| 2026-05-07 11:54 | 52.31366 | 4.76557 | 6 ft | 4 kts | 206° |
| 2026-05-07 11:55 | 52.31387 | 4.76567 | 6 ft | 3 kts | 175° |
| 2026-05-07 11:55 | 52.31383 | 4.76566 | 6 ft | 4 kts | 181° |
| 2026-05-07 11:55 | 52.31360 | 4.76554 | 7 ft | 4 kts | 205° |
| 2026-05-07 11:55 | 52.31339 | 4.76530 | 7 ft | 4 kts | 222° |
| 2026-05-07 11:56 | 52.31326 | 4.76497 | 7 ft | 4 kts | 246° |
| 2026-05-07 11:56 | 52.31327 | 4.76467 | 6 ft | 4 kts | 285° |
| 2026-05-07 11:56 | 52.31341 | 4.76441 | 4 ft | 4 kts | 320° |
| 2026-05-07 11:56 | 52.31364 | 4.76424 | 4 ft | 4 kts | 340° |
| 2026-05-07 11:57 | 52.31370 | 4.76421 | 4 ft | 0 kts | 342° |
| 2026-05-07 11:58 | 52.31374 | 4.76419 | 4 ft | 3 kts | 342° |
| 2026-05-07 11:58 | 52.31416 | 4.76397 | 4 ft | 8 kts | 342° |
| 2026-05-07 11:58 | 52.31455 | 4.76337 | 4 ft | 9 kts | 288° |
| 2026-05-07 11:59 | 52.31454 | 4.76210 | 4 ft | 14 kts | 267° |
| 2026-05-07 11:59 | 52.31447 | 4.76020 | 4 ft | 20 kts | 266° |
| 2026-05-07 11:59 | 52.31439 | 4.75786 | 4 ft | 21 kts | 266° |
| 2026-05-07 11:59 | 52.31433 | 4.75633 | 4 ft | 2 kts | 266° |
| 2026-05-07 12:00 | 52.31433 | 4.75632 | 4 ft | 0 kts | 266° |
| 2026-05-07 12:00 | 52.31431 | 4.75572 | 4 ft | 11 kts | 266° |
| 2026-05-07 12:00 | 52.31424 | 4.75401 | 4 ft | 16 kts | 266° |
| 2026-05-07 12:01 | 52.31418 | 4.75214 | 4 ft | 16 kts | 267° |
| 2026-05-07 12:01 | 52.31412 | 4.75031 | 4 ft | 16 kts | 267° |
| 2026-05-07 12:01 | 52.31406 | 4.74844 | 4 ft | 16 kts | 267° |
| 2026-05-07 12:01 | 52.31401 | 4.74661 | 4 ft | 16 kts | 267° |
| 2026-05-07 12:02 | 52.31395 | 4.74476 | 4 ft | 16 kts | 267° |
| 2026-05-07 12:02 | 52.31393 | 4.74402 | 4 ft | 0 kts | 266° |
| 2026-05-07 12:02 | 52.31391 | 4.74367 | 4 ft | 11 kts | 266° |
| 2026-05-07 12:03 | 52.31385 | 4.74205 | 4 ft | 14 kts | 259° |
| 2026-05-07 12:03 | 52.31306 | 4.74130 | 4 ft | 14 kts | 184° |
| 2026-05-07 12:03 | 52.31207 | 4.74122 | 4 ft | 14 kts | 183° |
| 2026-05-07 12:03 | 52.31107 | 4.74114 | 4 ft | 14 kts | 183° |
| 2026-05-07 12:04 | 52.31008 | 4.74106 | 4 ft | 14 kts | 183° |
| 2026-05-07 12:04 | 52.30906 | 4.74095 | 4 ft | 17 kts | 184° |
| 2026-05-07 12:04 | 52.30779 | 4.74082 | 4 ft | 18 kts | 183° |
| 2026-05-07 12:04 | 52.30652 | 4.74071 | 4 ft | 18 kts | 183° |
| 2026-05-07 12:05 | 52.30524 | 4.74060 | 4 ft | 18 kts | 183° |
| 2026-05-07 12:05 | 52.30402 | 4.74047 | 4 ft | 15 kts | 184° |
| 2026-05-07 12:05 | 52.30327 | 4.74019 | 4 ft | 6 kts | 201° |
| 2026-05-07 12:05 | 52.30322 | 4.74015 | 4 ft | 2 kts | 201° |
| 2026-05-07 12:06 | 52.30274 | 4.73977 | 4 ft | 10 kts | 212° |
| 2026-05-07 12:06 | 52.30219 | 4.73914 | 3 ft | 10 kts | 218° |
| 2026-05-07 12:06 | 52.30193 | 4.73815 | 3 ft | 10 kts | 270° |
| 2026-05-07 12:06 | 52.30240 | 4.73746 | 2 ft | 10 kts | 352° |
| 2026-05-07 12:07 | 52.30277 | 4.73746 | 1 ft | 0 kts | 1° |
| 2026-05-07 12:07 | 52.30325 | 4.73749 | 0 ft | 26 kts | 5° |
| 2026-05-07 12:07 | 52.30782 | 4.73791 | 4 ft | 104 kts | 3° |
| 2026-05-07 12:07 | 52.31753 | 4.73880 | 3 ft | 173 kts | 3° |
| 2026-05-07 12:08 | 52.33115 | 4.73996 | 149 ft | 207 kts | 4° |
| 2026-05-07 12:08 | 52.34465 | 4.74150 | 1112 ft | 190 kts | 13° |
| 2026-05-07 12:08 | 52.35665 | 4.75061 | 1758 ft | 192 kts | 28° |
| 2026-05-07 12:08 | 52.36901 | 4.76095 | 2035 ft | 209 kts | 26° |
| 2026-05-07 12:09 | 52.38185 | 4.77401 | 2204 ft | 228 kts | 43° |
| 2026-05-07 12:09 | 52.39305 | 4.79334 | 2642 ft | 239 kts | 46° |
| 2026-05-07 12:09 | 52.40471 | 4.81339 | 3218 ft | 246 kts | 45° |
| 2026-05-07 12:09 | 52.41653 | 4.83387 | 3834 ft | 248 kts | 51° |
| 2026-05-07 12:10 | 52.42361 | 4.85977 | 4268 ft | 257 kts | 85° |
| 2026-05-07 12:10 | 52.42375 | 4.88934 | 4710 ft | 263 kts | 89° |
| 2026-05-07 12:10 | 52.42386 | 4.91961 | 5317 ft | 268 kts | 89° |
| 2026-05-07 12:10 | 52.42402 | 4.95011 | 5939 ft | 269 kts | 89° |
| 2026-05-07 12:11 | 52.42196 | 4.98061 | 6039 ft | 275 kts | 112° |
| 2026-05-07 12:11 | 52.41066 | 5.00538 | 6098 ft | 276 kts | 143° |
| 2026-05-07 12:11 | 52.39512 | 5.02269 | 6495 ft | 277 kts | 146° |
| 2026-05-07 12:11 | 52.37937 | 5.04067 | 7185 ft | 276 kts | 145° |
| 2026-05-07 12:12 | 52.36371 | 5.05877 | 7867 ft | 276 kts | 145° |
| 2026-05-07 12:12 | 52.34799 | 5.07693 | 8469 ft | 279 kts | 145° |
| 2026-05-07 12:12 | 52.34290 | 5.08295 | 8653 ft | 278 kts | 142° |
| 2026-05-07 12:12 | 52.32566 | 5.12757 | 9373 ft | 286 kts | 111° |
| 2026-05-07 12:13 | 52.31861 | 5.15818 | 9961 ft | 289 kts | 111° |
| 2026-05-07 12:13 | 52.31143 | 5.18899 | 10443 ft | 295 kts | 111° |
| 2026-05-07 12:13 | 52.30385 | 5.22133 | 10601 ft | 314 kts | 111° |
| 2026-05-07 12:13 | 52.29510 | 5.25839 | 10816 ft | 336 kts | 111° |
| 2026-05-07 12:14 | 52.27731 | 5.33326 | 11391 ft | 368 kts | 111° |
| 2026-05-07 12:14 | 52.25903 | 5.40973 | 12633 ft | 379 kts | 111° |
| 2026-05-07 12:14 | 52.23982 | 5.48966 | 14055 ft | 387 kts | 111° |
| 2026-05-07 12:14 | 52.21986 | 5.57224 | 15382 ft | 395 kts | 112° |
| 2026-05-07 12:15 | 52.19908 | 5.65757 | 16718 ft | 402 kts | 112° |
| 2026-05-07 12:15 | 52.17846 | 5.74211 | 18011 ft | 411 kts | 112° |
| 2026-05-07 12:15 | 52.15714 | 5.82908 | 19295 ft | 415 kts | 112° |
| 2026-05-07 12:15 | 52.13526 | 5.91809 | 20386 ft | 423 kts | 112° |
| 2026-05-07 12:16 | 52.11347 | 6.00645 | 21482 ft | 429 kts | 112° |
| 2026-05-07 12:16 | 52.09210 | 6.09784 | 22483 ft | 438 kts | 105° |
| 2026-05-07 12:16 | 52.08179 | 6.19625 | 23515 ft | 444 kts | 98° |
| 2026-05-07 12:16 | 52.07298 | 6.29667 | 24362 ft | 452 kts | 99° |
| 2026-05-07 12:17 | 52.06295 | 6.39787 | 25188 ft | 458 kts | 100° |
| 2026-05-07 12:17 | 52.05213 | 6.50057 | 25872 ft | 466 kts | 101° |
| 2026-05-07 12:17 | 52.04100 | 6.60516 | 26651 ft | 471 kts | 100° |
| 2026-05-07 12:17 | 52.02984 | 6.70975 | 27455 ft | 475 kts | 101° |
| 2026-05-07 12:18 | 52.01639 | 6.81569 | 28163 ft | 479 kts | 105° |
| 2026-05-07 12:18 | 51.99924 | 6.92050 | 28827 ft | 483 kts | 105° |
| 2026-05-07 12:18 | 51.98221 | 7.02614 | 29473 ft | 487 kts | 105° |
| 2026-05-07 12:18 | 51.96482 | 7.13306 | 30002 ft | 491 kts | 106° |
| 2026-05-07 12:19 | 51.94537 | 7.23903 | 30705 ft | 488 kts | 107° |
| 2026-05-07 12:19 | 51.92545 | 7.34396 | 31088 ft | 484 kts | 107° |
| 2026-05-07 12:19 | 51.90592 | 7.44791 | 31072 ft | 481 kts | 107° |
| 2026-05-07 12:20 | 51.86680 | 7.65626 | 31097 ft | 488 kts | 107° |
| 2026-05-07 12:20 | 51.83274 | 7.87482 | 31062 ft | 492 kts | 103° |
| 2026-05-07 12:21 | 51.77072 | 8.30192 | 31020 ft | 481 kts | 103° |
| 2026-05-07 12:21 | 51.71227 | 8.72255 | 31087 ft | 487 kts | 103° |
| 2026-05-07 12:22 | 51.65145 | 9.15032 | 31016 ft | 485 kts | 103° |
| 2026-05-07 12:22 | 51.59060 | 9.56680 | 31041 ft | 475 kts | 104° |
| 2026-05-07 12:23 | 51.52795 | 9.98427 | 31028 ft | 483 kts | 104° |
| 2026-05-07 12:23 | 51.46473 | 10.39498 | 30971 ft | 467 kts | 104° |
| 2026-05-07 12:24 | 51.39940 | 10.80588 | 31008 ft | 483 kts | 104° |
| 2026-05-07 12:24 | 51.33346 | 11.21399 | 30974 ft | 466 kts | 104° |
| 2026-05-07 12:25 | 51.26549 | 11.62099 | 31088 ft | 482 kts | 105° |
| 2026-05-07 12:25 | 51.19698 | 12.02869 | 30965 ft | 472 kts | 105° |
| 2026-05-07 12:26 | 51.12629 | 12.43271 | 31043 ft | 481 kts | 105° |
| 2026-05-07 12:26 | 51.05165 | 12.84741 | 30949 ft | 481 kts | 107° |
| 2026-05-07 12:27 | 50.97704 | 13.25128 | 30980 ft | 485 kts | 108° |
| 2026-05-07 12:27 | 50.90031 | 13.67020 | 30944 ft | 487 kts | 109° |
| 2026-05-07 12:28 | 50.80585 | 14.05755 | 30924 ft | 469 kts | 134° |
| 2026-05-07 12:28 | 50.62377 | 14.36208 | 30915 ft | 473 kts | 137° |
| 2026-05-07 12:28 | 50.53592 | 14.50906 | 30915 ft | 462 kts | 138° |
| 2026-05-07 12:29 | 50.44838 | 14.65448 | 30950 ft | 459 kts | 139° |
| 2026-05-07 12:29 | 50.26948 | 14.94903 | 30939 ft | 470 kts | 139° |
| 2026-05-07 12:30 | 50.09207 | 15.23800 | 30896 ft | 453 kts | 140° |
| 2026-05-07 12:30 | 49.91409 | 15.52428 | 30935 ft | 468 kts | 140° |
| 2026-05-07 12:31 | 49.73576 | 15.80830 | 30875 ft | 451 kts | 141° |
| 2026-05-07 12:31 | 49.55806 | 16.08773 | 30917 ft | 465 kts | 141° |
| 2026-05-07 12:32 | 49.37801 | 16.36814 | 30922 ft | 453 kts | 141° |
| 2026-05-07 12:32 | 49.19855 | 16.64424 | 30982 ft | 466 kts | 141° |
| 2026-05-07 12:33 | 48.92268 | 17.06325 | 30912 ft | 461 kts | 141° |
| 2026-05-07 12:33 | 48.73924 | 17.34268 | 30979 ft | 475 kts | 140° |
| 2026-05-07 12:34 | 48.55422 | 17.62528 | 30900 ft | 468 kts | 141° |
| 2026-05-07 12:34 | 48.36902 | 17.90452 | 30978 ft | 475 kts | 141° |
| 2026-05-07 12:35 | 48.17949 | 18.18749 | 30935 ft | 476 kts | 141° |
| 2026-05-07 12:35 | 47.99381 | 18.46148 | 30999 ft | 477 kts | 141° |
| 2026-05-07 12:36 | 47.80135 | 18.74271 | 30940 ft | 486 kts | 141° |
| 2026-05-07 12:36 | 47.61889 | 19.03498 | 30976 ft | 482 kts | 139° |
| 2026-05-07 12:37 | 47.43234 | 19.32938 | 31017 ft | 496 kts | 139° |
| 2026-05-07 12:37 | 47.24579 | 19.62086 | 30916 ft | 482 kts | 139° |
| 2026-05-07 12:38 | 47.05882 | 19.90955 | 31037 ft | 495 kts | 139° |
| 2026-05-07 12:38 | 46.86859 | 20.20034 | 30927 ft | 486 kts | 139° |
| 2026-05-07 12:39 | 46.68044 | 20.48456 | 31036 ft | 495 kts | 139° |
| 2026-05-07 12:39 | 46.48824 | 20.77209 | 30965 ft | 488 kts | 139° |
| 2026-05-07 12:40 | 46.42512 | 20.86573 | 31293 ft | 493 kts | 139° |
| 2026-05-07 12:40 | 46.32981 | 21.00668 | 32640 ft | 487 kts | 139° |
| 2026-05-07 12:40 | 46.23788 | 21.15313 | 33068 ft | 499 kts | 129° |
| 2026-05-07 12:40 | 46.15809 | 21.31747 | 33071 ft | 499 kts | 129° |
| 2026-05-07 12:41 | 45.99975 | 21.63672 | 32973 ft | 484 kts | 129° |
| 2026-05-07 12:41 | 45.92050 | 21.79477 | 33091 ft | 490 kts | 130° |
| 2026-05-07 12:41 | 45.83963 | 21.95523 | 33068 ft | 498 kts | 130° |
| 2026-05-07 12:42 | 45.67733 | 22.27474 | 33017 ft | 491 kts | 130° |
| 2026-05-07 12:42 | 45.51597 | 22.58860 | 33064 ft | 496 kts | 131° |
| 2026-05-07 12:43 | 45.34893 | 22.91009 | 33041 ft | 504 kts | 131° |
| 2026-05-07 12:43 | 45.18408 | 23.22379 | 33061 ft | 491 kts | 131° |
| 2026-05-07 12:44 | 45.10136 | 23.37978 | 33130 ft | 502 kts | 131° |
| 2026-05-07 12:44 | 45.01639 | 23.53926 | 33089 ft | 512 kts | 131° |
| 2026-05-07 12:44 | 44.84588 | 23.85677 | 32962 ft | 499 kts | 131° |
| 2026-05-07 12:45 | 44.67665 | 24.16820 | 33088 ft | 509 kts | 131° |
| 2026-05-07 12:45 | 44.50176 | 24.48672 | 33011 ft | 513 kts | 131° |
| 2026-05-07 12:46 | 44.33041 | 24.79533 | 33041 ft | 502 kts | 131° |
| 2026-05-07 12:46 | 44.24249 | 24.95235 | 33088 ft | 513 kts | 131° |
| 2026-05-07 12:46 | 44.15383 | 25.10992 | 33091 ft | 519 kts | 130° |
| 2026-05-07 12:47 | 44.06491 | 25.26712 | 32977 ft | 512 kts | 130° |
| 2026-05-07 12:47 | 43.97870 | 25.41868 | 32960 ft | 503 kts | 130° |
| 2026-05-07 12:47 | 43.80293 | 25.72529 | 33053 ft | 517 kts | 130° |
| 2026-05-07 12:48 | 43.72856 | 25.89698 | 32960 ft | 523 kts | 110° |
| 2026-05-07 12:48 | 43.68228 | 26.08497 | 33003 ft | 513 kts | 109° |
| 2026-05-07 12:48 | 43.58801 | 26.45507 | 33060 ft | 515 kts | 109° |
| 2026-05-07 12:49 | 43.49046 | 26.83165 | 32997 ft | 522 kts | 109° |
| 2026-05-07 12:49 | 43.44194 | 27.01791 | 32979 ft | 511 kts | 109° |
| 2026-05-07 12:49 | 43.39409 | 27.20129 | 33082 ft | 512 kts | 109° |
| 2026-05-07 12:50 | 43.34515 | 27.38757 | 33115 ft | 524 kts | 108° |
| 2026-05-07 12:50 | 43.29489 | 27.57757 | 33189 ft | 528 kts | 108° |
| 2026-05-07 12:50 | 43.24481 | 27.76544 | 33082 ft | 521 kts | 108° |
| 2026-05-07 12:50 | 43.20654 | 27.95476 | 33119 ft | 511 kts | 100° |
| 2026-05-07 12:51 | 43.13990 | 28.33957 | 33138 ft | 529 kts | 101° |
| 2026-05-07 12:51 | 43.07061 | 28.72540 | 32767 ft | 517 kts | 101° |
| 2026-05-07 12:52 | 43.03346 | 28.91526 | 32414 ft | 513 kts | 103° |
| 2026-05-07 12:52 | 42.99265 | 29.10100 | 32029 ft | 511 kts | 104° |
| 2026-05-07 12:52 | 42.94699 | 29.28402 | 31770 ft | 507 kts | 107° |
| 2026-05-07 12:52 | 42.89587 | 29.46314 | 31410 ft | 506 kts | 110° |
| 2026-05-07 12:53 | 42.83966 | 29.63554 | 31178 ft | 503 kts | 113° |
| 2026-05-07 12:53 | 42.77620 | 29.80561 | 30798 ft | 503 kts | 116° |
| 2026-05-07 12:53 | 42.70613 | 29.96935 | 30529 ft | 501 kts | 120° |
| 2026-05-07 12:53 | 42.62879 | 30.12665 | 30168 ft | 501 kts | 123° |
| 2026-05-07 12:54 | 42.54445 | 30.27700 | 29819 ft | 499 kts | 127° |
| 2026-05-07 12:54 | 42.45422 | 30.41939 | 29486 ft | 497 kts | 131° |
| 2026-05-07 12:54 | 42.35835 | 30.55372 | 29106 ft | 496 kts | 134° |
| 2026-05-07 12:54 | 42.25696 | 30.67993 | 28757 ft | 495 kts | 138° |
| 2026-05-07 12:55 | 42.15041 | 30.79727 | 28390 ft | 493 kts | 142° |